sensor_id;sensor_type;location;lat;lon;timestamp;temperature;humidity
22984;DHT22;11658;48.908;9.140;2023-08-06T05:01:44;14.70;99.90
22984;DHT22;11658;48.908;9.140;2023-08-06T05:04:10;14.80;99.90
22984;DHT22;11658;48.908;9.140;2023-08-06T05:06:35;14.80;99.90
22984;DHT22;11658;48.908;9.140;2023-08-06T05:09:03;14.80;99.90
22984;DHT22;11658;48.908;9.140;2023-08-06T05:11:29;14.80;99.90
22984;DHT22;11658;48.908;9.140;2023-08-06T05:13:55;14.90;99.90
22984;DHT22;11658;48.908;9.140;2023-08-06T05:16:21;15.00;99.90
22984;DHT22;11658;48.908;9.140;2023-08-06T05:18:46;15.00;99.90
22984;DHT22;11658;48.908;9.140;2023-08-06T05:21:12;15.20;99.90
22984;DHT22;11658;48.908;9.140;2023-08-06T05:23:37;15.30;99.90
22984;DHT22;11658;48.908;9.140;2023-08-06T05:26:03;15.50;99.90
22984;DHT22;11658;48.908;9.140;2023-08-06T05:28:28;15.70;99.90
22984;DHT22;11658;48.908;9.140;2023-08-06T05:30:54;15.90;99.90
22984;DHT22;11658;48.908;9.140;2023-08-06T05:33:20;16.00;99.90
22984;DHT22;11658;48.908;9.140;2023-08-06T05:35:45;15.90;99.90
22984;DHT22;11658;48.908;9.140;2023-08-06T05:38:11;16.00;99.90
22984;DHT22;11658;48.908;9.140;2023-08-06T05:40:36;16.10;99.90
22984;DHT22;11658;48.908;9.140;2023-08-06T05:43:02;16.10;99.90
22984;DHT22;11658;48.908;9.140;2023-08-06T05:45:27;15.90;99.90
22984;DHT22;11658;48.908;9.140;2023-08-06T05:47:53;15.90;99.90
22984;DHT22;11658;48.908;9.140;2023-08-06T05:50:23;15.70;99.90
22984;DHT22;11658;48.908;9.140;2023-08-06T05:52:48;15.80;99.90
22984;DHT22;11658;48.908;9.140;2023-08-06T05:55:14;15.80;99.90
22984;DHT22;11658;48.908;9.140;2023-08-06T05:57:39;15.80;99.90
22984;DHT22;11658;48.908;9.140;2023-08-06T06:00:05;15.70;99.90
22984;DHT22;11658;48.908;9.140;2023-08-06T06:02:32;15.70;99.90
22984;DHT22;11658;48.908;9.140;2023-08-06T06:04:57;15.60;99.90
22984;DHT22;11658;48.908;9.140;2023-08-06T06:07:23;15.60;99.90
22984;DHT22;11658;48.908;9.140;2023-08-06T06:09:48;15.60;99.90
22984;DHT22;11658;48.908;9.140;2023-08-06T06:12:14;15.60;99.90
22984;DHT22;11658;48.908;9.140;2023-08-06T06:14:39;15.50;99.90
22984;DHT22;11658;48.908;9.140;2023-08-06T06:17:05;15.30;99.90
22984;DHT22;11658;48.908;9.140;2023-08-06T06:19:30;15.10;99.90
22984;DHT22;11658;48.908;9.140;2023-08-06T06:21:56;15.10;99.90
22984;DHT22;11658;48.908;9.140;2023-08-06T06:24:23;15.10;99.90
22984;DHT22;11658;48.908;9.140;2023-08-06T06:26:48;14.90;99.90
22984;DHT22;11658;48.908;9.140;2023-08-06T06:29:14;15.00;99.90
22984;DHT22;11658;48.908;9.140;2023-08-06T06:31:39;14.90;99.90
22984;DHT22;11658;48.908;9.140;2023-08-06T06:34:05;14.90;99.90
22984;DHT22;11658;48.908;9.140;2023-08-06T06:36:30;14.80;99.90
22984;DHT22;11658;48.908;9.140;2023-08-06T06:38:56;14.80;99.90
22984;DHT22;11658;48.908;9.140;2023-08-06T06:41:22;14.80;99.90
22984;DHT22;11658;48.908;9.140;2023-08-06T06:43:47;14.80;99.90
22984;DHT22;11658;48.908;9.140;2023-08-06T06:46:13;14.70;99.90
22984;DHT22;11658;48.908;9.140;2023-08-06T06:48:38;14.70;99.90
22984;DHT22;11658;48.908;9.140;2023-08-06T06:51:04;14.70;99.90
22984;DHT22;11658;48.908;9.140;2023-08-06T06:53:29;14.60;99.90
22984;DHT22;11658;48.908;9.140;2023-08-06T06:56:05;14.60;99.90
22984;DHT22;11658;48.908;9.140;2023-08-06T06:58:31;14.60;99.90
22984;DHT22;11658;48.908;9.140;2023-08-06T07:00:57;14.60;99.90
22984;DHT22;11658;48.908;9.140;2023-08-06T07:03:22;14.60;99.90
22984;DHT22;11658;48.908;9.140;2023-08-06T07:05:49;14.70;99.90
22984;DHT22;11658;48.908;9.140;2023-08-06T07:08:15;15.10;99.90
22984;DHT22;11658;48.908;9.140;2023-08-06T07:10:41;15.30;99.90
22984;DHT22;11658;48.908;9.140;2023-08-06T07:13:07;15.40;99.90
22984;DHT22;11658;48.908;9.140;2023-08-06T07:15:33;15.40;99.90
22984;DHT22;11658;48.908;9.140;2023-08-06T07:17:58;15.30;99.90
22984;DHT22;11658;48.908;9.140;2023-08-06T07:20:24;15.30;99.90
22984;DHT22;11658;48.908;9.140;2023-08-06T07:22:49;15.10;99.90
22984;DHT22;11658;48.908;9.140;2023-08-06T07:25:16;15.10;99.90
22984;DHT22;11658;48.908;9.140;2023-08-06T07:27:42;15.00;99.90
22984;DHT22;11658;48.908;9.140;2023-08-06T07:30:07;15.00;99.90
22984;DHT22;11658;48.908;9.140;2023-08-06T07:32:33;15.00;99.90
22984;DHT22;11658;48.908;9.140;2023-08-06T07:34:59;15.10;99.90
22984;DHT22;11658;48.908;9.140;2023-08-06T07:37:26;15.10;99.90
22984;DHT22;11658;48.908;9.140;2023-08-06T07:39:54;15.10;99.90
22984;DHT22;11658;48.908;9.140;2023-08-06T07:42:20;15.10;99.90
22984;DHT22;11658;48.908;9.140;2023-08-06T07:44:51;15.10;99.90
22984;DHT22;11658;48.908;9.140;2023-08-06T07:47:18;15.20;99.90
22984;DHT22;11658;48.908;9.140;2023-08-06T07:49:44;15.30;99.90
22984;DHT22;11658;48.908;9.140;2023-08-06T07:52:09;15.40;99.90
22984;DHT22;11658;48.908;9.140;2023-08-06T07:54:35;15.50;99.90
22984;DHT22;11658;48.908;9.140;2023-08-06T07:57:00;15.50;99.90
22984;DHT22;11658;48.908;9.140;2023-08-06T07:59:26;15.40;99.90
22984;DHT22;11658;48.908;9.140;2023-08-06T08:01:52;15.30;99.90
22984;DHT22;11658;48.908;9.140;2023-08-06T08:04:17;15.40;99.90
22984;DHT22;11658;48.908;9.140;2023-08-06T08:06:43;15.40;99.90
22984;DHT22;11658;48.908;9.140;2023-08-06T08:09:08;15.40;99.90
22984;DHT22;11658;48.908;9.140;2023-08-06T08:11:34;15.40;99.90
22984;DHT22;11658;48.908;9.140;2023-08-06T08:14:00;15.60;99.90
22984;DHT22;11658;48.908;9.140;2023-08-06T08:16:25;15.80;99.90
22984;DHT22;11658;48.908;9.140;2023-08-06T08:18:51;16.20;99.90
22984;DHT22;11658;48.908;9.140;2023-08-06T08:21:16;16.50;99.90
22984;DHT22;11658;48.908;9.140;2023-08-06T08:23:43;16.70;99.90
22984;DHT22;11658;48.908;9.140;2023-08-06T08:26:09;16.90;99.90
22984;DHT22;11658;48.908;9.140;2023-08-06T08:28:35;17.10;99.90
22984;DHT22;11658;48.908;9.140;2023-08-06T08:31:00;17.20;99.90
22984;DHT22;11658;48.908;9.140;2023-08-06T08:33:26;16.90;99.90
22984;DHT22;11658;48.908;9.140;2023-08-06T08:35:52;16.80;99.90
22984;DHT22;11658;48.908;9.140;2023-08-06T08:38:17;16.60;99.90
22984;DHT22;11658;48.908;9.140;2023-08-06T08:40:46;16.60;99.90
22984;DHT22;11658;48.908;9.140;2023-08-06T08:43:15;16.80;99.90
22984;DHT22;11658;48.908;9.140;2023-08-06T08:45:42;16.90;99.90
22984;DHT22;11658;48.908;9.140;2023-08-06T08:48:12;16.70;99.90
22984;DHT22;11658;48.908;9.140;2023-08-06T08:50:40;16.70;99.90
22984;DHT22;11658;48.908;9.140;2023-08-06T08:53:06;16.90;99.90
22984;DHT22;11658;48.908;9.140;2023-08-06T08:55:32;16.90;99.90
22984;DHT22;11658;48.908;9.140;2023-08-06T08:57:58;16.90;99.90
22984;DHT22;11658;48.908;9.140;2023-08-06T09:00:24;16.80;99.90
22984;DHT22;11658;48.908;9.140;2023-08-06T09:02:51;16.60;99.90
22984;DHT22;11658;48.908;9.140;2023-08-06T09:05:18;16.00;99.90
22984;DHT22;11658;48.908;9.140;2023-08-06T09:07:48;15.70;99.90
22984;DHT22;11658;48.908;9.140;2023-08-06T09:10:16;15.50;99.90
22984;DHT22;11658;48.908;9.140;2023-08-06T09:12:43;15.40;99.90
22984;DHT22;11658;48.908;9.140;2023-08-06T09:15:10;15.30;99.90
22984;DHT22;11658;48.908;9.140;2023-08-06T09:17:36;15.40;99.90
22984;DHT22;11658;48.908;9.140;2023-08-06T09:20:15;15.40;99.90
22984;DHT22;11658;48.908;9.140;2023-08-06T09:22:41;15.40;99.90
22984;DHT22;11658;48.908;9.140;2023-08-06T09:25:07;15.50;99.90
22984;DHT22;11658;48.908;9.140;2023-08-06T09:27:38;15.50;99.90
22984;DHT22;11658;48.908;9.140;2023-08-06T09:30:05;15.50;99.90
22984;DHT22;11658;48.908;9.140;2023-08-06T09:32:48;15.80;99.90
22984;DHT22;11658;48.908;9.140;2023-08-06T09:35:19;16.20;99.90
22984;DHT22;11658;48.908;9.140;2023-08-06T09:37:45;16.40;99.90
22984;DHT22;11658;48.908;9.140;2023-08-06T09:40:38;16.30;99.90
22984;DHT22;11658;48.908;9.140;2023-08-06T09:43:04;16.10;99.90
22984;DHT22;11658;48.908;9.140;2023-08-06T09:45:37;16.00;99.90
22984;DHT22;11658;48.908;9.140;2023-08-06T09:48:07;16.00;99.90
22984;DHT22;11658;48.908;9.140;2023-08-06T09:50:35;15.90;99.90
22984;DHT22;11658;48.908;9.140;2023-08-06T09:53:03;15.90;99.90
22984;DHT22;11658;48.908;9.140;2023-08-06T09:55:29;16.00;99.90
22984;DHT22;11658;48.908;9.140;2023-08-06T09:57:55;16.10;99.90
22984;DHT22;11658;48.908;9.140;2023-08-06T10:00:21;16.10;99.90
22984;DHT22;11658;48.908;9.140;2023-08-06T10:02:48;16.10;99.90
22984;DHT22;11658;48.908;9.140;2023-08-06T10:05:15;16.00;99.90
22984;DHT22;11658;48.908;9.140;2023-08-06T10:07:43;16.00;99.90
22984;DHT22;11658;48.908;9.140;2023-08-06T10:10:09;16.10;99.90
22984;DHT22;11658;48.908;9.140;2023-08-06T10:12:41;16.30;99.90
22984;DHT22;11658;48.908;9.140;2023-08-06T10:15:11;16.30;99.90
22984;DHT22;11658;48.908;9.140;2023-08-06T10:17:38;16.40;99.90
22984;DHT22;11658;48.908;9.140;2023-08-06T10:20:05;16.30;99.90
22984;DHT22;11658;48.908;9.140;2023-08-06T10:22:33;16.40;99.90
22984;DHT22;11658;48.908;9.140;2023-08-06T10:25:00;16.60;99.90
22984;DHT22;11658;48.908;9.140;2023-08-06T10:27:35;16.80;99.90
22984;DHT22;11658;48.908;9.140;2023-08-06T10:30:29;16.90;99.90
22984;DHT22;11658;48.908;9.140;2023-08-06T10:32:56;16.90;99.90
22984;DHT22;11658;48.908;9.140;2023-08-06T10:38:24;16.50;99.90
22984;DHT22;11658;48.908;9.140;2023-08-06T10:43:27;16.50;99.90
22984;DHT22;11658;48.908;9.140;2023-08-06T10:45:53;16.60;99.90
22984;DHT22;11658;48.908;9.140;2023-08-06T10:48:37;16.40;99.90
22984;DHT22;11658;48.908;9.140;2023-08-06T10:51:07;16.20;99.90
22984;DHT22;11658;48.908;9.140;2023-08-06T10:53:33;16.20;99.90
22984;DHT22;11658;48.908;9.140;2023-08-06T10:55:58;16.40;99.90
22984;DHT22;11658;48.908;9.140;2023-08-06T10:58:24;16.20;99.90
22984;DHT22;11658;48.908;9.140;2023-08-06T11:00:49;16.00;99.90
22984;DHT22;11658;48.908;9.140;2023-08-06T11:03:15;16.00;99.90
22984;DHT22;11658;48.908;9.140;2023-08-06T11:05:41;16.10;99.90
22984;DHT22;11658;48.908;9.140;2023-08-06T11:08:23;15.90;99.90
22984;DHT22;11658;48.908;9.140;2023-08-06T11:10:49;15.70;99.90
22984;DHT22;11658;48.908;9.140;2023-08-06T11:13:17;15.70;99.90
22984;DHT22;11658;48.908;9.140;2023-08-06T11:15:44;15.80;99.90
22984;DHT22;11658;48.908;9.140;2023-08-06T11:18:10;15.70;99.90
22984;DHT22;11658;48.908;9.140;2023-08-06T11:20:36;15.60;99.90
22984;DHT22;11658;48.908;9.140;2023-08-06T11:23:02;15.50;99.90
22984;DHT22;11658;48.908;9.140;2023-08-06T11:25:28;15.50;99.90
22984;DHT22;11658;48.908;9.140;2023-08-06T11:27:54;15.50;99.90
22984;DHT22;11658;48.908;9.140;2023-08-06T11:30:20;15.70;99.90
22984;DHT22;11658;48.908;9.140;2023-08-06T11:32:46;15.70;99.90
22984;DHT22;11658;48.908;9.140;2023-08-06T11:35:13;15.80;99.90
22984;DHT22;11658;48.908;9.140;2023-08-06T11:37:43;15.80;99.90
22984;DHT22;11658;48.908;9.140;2023-08-06T11:40:10;15.80;99.90
22984;DHT22;11658;48.908;9.140;2023-08-06T11:42:36;15.70;99.90
22984;DHT22;11658;48.908;9.140;2023-08-06T11:45:03;15.50;99.90
22984;DHT22;11658;48.908;9.140;2023-08-06T11:47:29;15.50;99.90
22984;DHT22;11658;48.908;9.140;2023-08-06T11:49:55;15.30;99.90
22984;DHT22;11658;48.908;9.140;2023-08-06T11:52:25;15.40;99.90
22984;DHT22;11658;48.908;9.140;2023-08-06T11:55:04;15.20;99.90
22984;DHT22;11658;48.908;9.140;2023-08-06T11:57:33;14.90;99.90
22984;DHT22;11658;48.908;9.140;2023-08-06T12:00:11;14.80;99.90
22984;DHT22;11658;48.908;9.140;2023-08-06T12:02:39;14.60;99.90
22984;DHT22;11658;48.908;9.140;2023-08-06T12:05:11;14.40;99.90
22984;DHT22;11658;48.908;9.140;2023-08-06T12:07:39;14.20;99.90
22984;DHT22;11658;48.908;9.140;2023-08-06T12:10:05;14.00;99.90
22984;DHT22;11658;48.908;9.140;2023-08-06T12:12:31;13.90;99.90
22984;DHT22;11658;48.908;9.140;2023-08-06T12:14:57;13.90;99.90
22984;DHT22;11658;48.908;9.140;2023-08-06T12:17:26;13.80;99.90
22984;DHT22;11658;48.908;9.140;2023-08-06T12:19:52;13.70;99.90
22984;DHT22;11658;48.908;9.140;2023-08-06T12:22:17;13.70;99.90
22984;DHT22;11658;48.908;9.140;2023-08-06T12:24:44;13.70;99.90
22984;DHT22;11658;48.908;9.140;2023-08-06T12:27:11;13.60;99.90
22984;DHT22;11658;48.908;9.140;2023-08-06T12:29:48;13.70;99.90
22984;DHT22;11658;48.908;9.140;2023-08-06T12:32:14;13.70;99.90
22984;DHT22;11658;48.908;9.140;2023-08-06T12:34:41;13.70;99.90
22984;DHT22;11658;48.908;9.140;2023-08-06T12:37:07;13.80;99.90
22984;DHT22;11658;48.908;9.140;2023-08-06T12:39:33;13.80;99.90
22984;DHT22;11658;48.908;9.140;2023-08-06T12:42:03;13.90;99.90
22984;DHT22;11658;48.908;9.140;2023-08-06T12:44:29;14.00;99.90
22984;DHT22;11658;48.908;9.140;2023-08-06T12:46:54;14.20;99.90
22984;DHT22;11658;48.908;9.140;2023-08-06T12:49:21;14.30;99.90
22984;DHT22;11658;48.908;9.140;2023-08-06T12:51:48;14.40;99.90
22984;DHT22;11658;48.908;9.140;2023-08-06T12:54:13;14.40;99.90
22984;DHT22;11658;48.908;9.140;2023-08-06T12:56:39;14.50;99.90
22984;DHT22;11658;48.908;9.140;2023-08-06T12:59:05;14.80;99.90
22984;DHT22;11658;48.908;9.140;2023-08-06T13:01:31;14.90;99.90
22984;DHT22;11658;48.908;9.140;2023-08-06T13:03:58;15.00;99.90
22984;DHT22;11658;48.908;9.140;2023-08-06T13:06:23;15.10;99.90
22984;DHT22;11658;48.908;9.140;2023-08-06T13:08:49;15.30;99.90
22984;DHT22;11658;48.908;9.140;2023-08-06T13:11:14;15.50;99.90
22984;DHT22;11658;48.908;9.140;2023-08-06T13:13:40;15.40;99.90
22984;DHT22;11658;48.908;9.140;2023-08-06T13:16:06;15.50;99.90
22984;DHT22;11658;48.908;9.140;2023-08-06T13:18:31;15.50;99.90
22984;DHT22;11658;48.908;9.140;2023-08-06T13:20:57;15.50;99.90
22984;DHT22;11658;48.908;9.140;2023-08-06T13:23:22;15.40;99.90
22984;DHT22;11658;48.908;9.140;2023-08-06T13:25:48;15.30;99.90
22984;DHT22;11658;48.908;9.140;2023-08-06T13:28:14;15.40;99.90
22984;DHT22;11658;48.908;9.140;2023-08-06T13:30:40;15.60;99.90
22984;DHT22;11658;48.908;9.140;2023-08-06T13:33:11;15.70;99.90
22984;DHT22;11658;48.908;9.140;2023-08-06T13:35:37;15.80;99.90
22984;DHT22;11658;48.908;9.140;2023-08-06T13:38:03;15.70;99.90
22984;DHT22;11658;48.908;9.140;2023-08-06T13:40:29;15.70;99.90
22984;DHT22;11658;48.908;9.140;2023-08-06T13:42:55;15.70;99.90
22984;DHT22;11658;48.908;9.140;2023-08-06T13:45:21;15.60;99.90
22984;DHT22;11658;48.908;9.140;2023-08-06T13:47:47;15.60;99.90
22984;DHT22;11658;48.908;9.140;2023-08-06T13:50:13;15.70;99.90
22984;DHT22;11658;48.908;9.140;2023-08-06T13:52:39;15.80;99.90
22984;DHT22;11658;48.908;9.140;2023-08-06T13:55:05;16.00;99.90
22984;DHT22;11658;48.908;9.140;2023-08-06T13:57:31;16.10;99.90
22984;DHT22;11658;48.908;9.140;2023-08-06T13:59:56;16.10;99.90
22984;DHT22;11658;48.908;9.140;2023-08-06T14:02:22;15.80;99.90
22984;DHT22;11658;48.908;9.140;2023-08-06T14:04:48;15.90;99.90
22984;DHT22;11658;48.908;9.140;2023-08-06T14:07:14;15.90;99.90
22984;DHT22;11658;48.908;9.140;2023-08-06T14:09:40;15.90;99.90
22984;DHT22;11658;48.908;9.140;2023-08-06T14:12:07;16.00;99.90
22984;DHT22;11658;48.908;9.140;2023-08-06T14:14:33;16.00;99.90
22984;DHT22;11658;48.908;9.140;2023-08-06T14:16:59;15.50;99.90
22984;DHT22;11658;48.908;9.140;2023-08-06T14:19:25;15.20;99.90
22984;DHT22;11658;48.908;9.140;2023-08-06T14:21:50;14.90;99.90
22984;DHT22;11658;48.908;9.140;2023-08-06T14:24:16;14.50;99.90
22984;DHT22;11658;48.908;9.140;2023-08-06T14:26:41;14.50;99.90
22984;DHT22;11658;48.908;9.140;2023-08-06T14:29:07;14.40;99.90
22984;DHT22;11658;48.908;9.140;2023-08-06T14:31:33;14.30;99.90
22984;DHT22;11658;48.908;9.140;2023-08-06T14:33:58;14.20;99.90
22984;DHT22;11658;48.908;9.140;2023-08-06T14:36:24;14.30;99.90
22984;DHT22;11658;48.908;9.140;2023-08-06T14:38:49;14.20;99.90
22984;DHT22;11658;48.908;9.140;2023-08-06T14:41:15;14.30;99.90
22984;DHT22;11658;48.908;9.140;2023-08-06T14:43:41;14.30;99.90
22984;DHT22;11658;48.908;9.140;2023-08-06T14:46:06;14.40;99.90
22984;DHT22;11658;48.908;9.140;2023-08-06T14:48:32;14.50;99.90
22984;DHT22;11658;48.908;9.140;2023-08-06T14:50:58;14.50;99.90
22984;DHT22;11658;48.908;9.140;2023-08-06T14:53:23;14.70;99.90
22984;DHT22;11658;48.908;9.140;2023-08-06T14:55:49;14.80;99.90
22984;DHT22;11658;48.908;9.140;2023-08-06T14:58:15;15.10;99.90
22984;DHT22;11658;48.908;9.140;2023-08-06T15:00:41;15.20;99.90
22984;DHT22;11658;48.908;9.140;2023-08-06T15:03:07;15.30;99.90
22984;DHT22;11658;48.908;9.140;2023-08-06T15:05:32;15.40;99.90
22984;DHT22;11658;48.908;9.140;2023-08-06T15:07:58;15.50;99.90
22984;DHT22;11658;48.908;9.140;2023-08-06T15:10:23;15.50;99.90
22984;DHT22;11658;48.908;9.140;2023-08-06T15:12:49;15.40;99.90
22984;DHT22;11658;48.908;9.140;2023-08-06T15:15:15;15.00;99.90
22984;DHT22;11658;48.908;9.140;2023-08-06T15:17:40;14.90;99.90
22984;DHT22;11658;48.908;9.140;2023-08-06T15:20:06;15.00;99.90
22984;DHT22;11658;48.908;9.140;2023-08-06T15:22:32;15.00;99.90
22984;DHT22;11658;48.908;9.140;2023-08-06T15:24:59;15.00;99.90
22984;DHT22;11658;48.908;9.140;2023-08-06T15:27:25;15.00;99.90
22984;DHT22;11658;48.908;9.140;2023-08-06T15:29:51;15.10;99.90
22984;DHT22;11658;48.908;9.140;2023-08-06T15:32:18;15.10;99.90
22984;DHT22;11658;48.908;9.140;2023-08-06T15:34:43;15.10;99.90
22984;DHT22;11658;48.908;9.140;2023-08-06T15:37:09;15.10;99.90
22984;DHT22;11658;48.908;9.140;2023-08-06T15:39:34;15.10;99.90
22984;DHT22;11658;48.908;9.140;2023-08-06T15:42:00;15.00;99.90
22984;DHT22;11658;48.908;9.140;2023-08-06T15:44:26;14.90;99.90
22984;DHT22;11658;48.908;9.140;2023-08-06T15:46:51;14.70;99.90
22984;DHT22;11658;48.908;9.140;2023-08-06T15:49:17;14.60;99.90
22984;DHT22;11658;48.908;9.140;2023-08-06T15:51:42;14.50;99.90
22984;DHT22;11658;48.908;9.140;2023-08-06T15:54:09;14.60;99.90
22984;DHT22;11658;48.908;9.140;2023-08-06T15:56:34;14.70;99.90
22984;DHT22;11658;48.908;9.140;2023-08-06T15:59:24;14.80;99.90
22984;DHT22;11658;48.908;9.140;2023-08-06T16:01:50;14.80;99.90
22984;DHT22;11658;48.908;9.140;2023-08-06T16:04:16;14.80;99.90
22984;DHT22;11658;48.908;9.140;2023-08-06T16:06:42;14.80;99.90
22984;DHT22;11658;48.908;9.140;2023-08-06T16:09:08;14.80;99.90
22984;DHT22;11658;48.908;9.140;2023-08-06T16:11:33;14.60;99.90
22984;DHT22;11658;48.908;9.140;2023-08-06T16:13:59;14.40;99.90
22984;DHT22;11658;48.908;9.140;2023-08-06T16:16:25;14.10;99.90
22984;DHT22;11658;48.908;9.140;2023-08-06T16:18:50;13.90;99.90
22984;DHT22;11658;48.908;9.140;2023-08-06T16:21:16;13.80;99.90
22984;DHT22;11658;48.908;9.140;2023-08-06T16:23:41;13.70;99.90
22984;DHT22;11658;48.908;9.140;2023-08-06T16:26:07;13.50;99.90
22984;DHT22;11658;48.908;9.140;2023-08-06T16:28:33;13.50;99.90
22984;DHT22;11658;48.908;9.140;2023-08-06T16:30:58;13.40;99.90
22984;DHT22;11658;48.908;9.140;2023-08-06T16:33:24;13.30;99.90
22984;DHT22;11658;48.908;9.140;2023-08-06T16:35:49;13.30;99.90
22984;DHT22;11658;48.908;9.140;2023-08-06T16:38:15;13.30;99.90
22984;DHT22;11658;48.908;9.140;2023-08-06T16:40:42;13.30;99.90
22984;DHT22;11658;48.908;9.140;2023-08-06T16:43:16;13.30;99.90
22984;DHT22;11658;48.908;9.140;2023-08-06T16:45:41;13.30;99.90
22984;DHT22;11658;48.908;9.140;2023-08-06T16:48:07;13.30;99.90
22984;DHT22;11658;48.908;9.140;2023-08-06T16:50:34;13.20;99.90
22984;DHT22;11658;48.908;9.140;2023-08-06T16:52:59;13.20;99.90
22984;DHT22;11658;48.908;9.140;2023-08-06T16:55:25;13.20;99.90
22984;DHT22;11658;48.908;9.140;2023-08-06T16:57:51;13.10;99.90
22984;DHT22;11658;48.908;9.140;2023-08-06T17:00:16;13.10;99.90
22984;DHT22;11658;48.908;9.140;2023-08-06T17:02:42;13.30;99.90
22984;DHT22;11658;48.908;9.140;2023-08-06T17:05:07;13.40;99.90
22984;DHT22;11658;48.908;9.140;2023-08-06T17:07:33;13.40;99.90
22984;DHT22;11658;48.908;9.140;2023-08-06T17:09:59;13.60;99.90
22984;DHT22;11658;48.908;9.140;2023-08-06T17:12:24;13.50;99.90
22984;DHT22;11658;48.908;9.140;2023-08-06T17:14:51;13.50;99.90
22984;DHT22;11658;48.908;9.140;2023-08-06T17:17:16;13.40;99.90
22984;DHT22;11658;48.908;9.140;2023-08-06T17:19:42;13.30;99.90
22984;DHT22;11658;48.908;9.140;2023-08-06T17:22:11;13.40;99.90
22984;DHT22;11658;48.908;9.140;2023-08-06T17:24:37;13.40;99.90
22984;DHT22;11658;48.908;9.140;2023-08-06T17:27:02;13.30;99.90
22984;DHT22;11658;48.908;9.140;2023-08-06T17:29:28;13.30;99.90
22984;DHT22;11658;48.908;9.140;2023-08-06T17:31:54;13.30;99.90
22984;DHT22;11658;48.908;9.140;2023-08-06T17:34:20;13.30;99.90
22984;DHT22;11658;48.908;9.140;2023-08-06T17:36:46;13.30;99.90
22984;DHT22;11658;48.908;9.140;2023-08-06T17:39:11;13.20;99.90
22984;DHT22;11658;48.908;9.140;2023-08-06T17:41:37;13.30;99.90
22984;DHT22;11658;48.908;9.140;2023-08-06T17:44:03;13.40;99.90
22984;DHT22;11658;48.908;9.140;2023-08-06T17:46:28;13.40;99.90
22984;DHT22;11658;48.908;9.140;2023-08-06T17:48:54;13.40;99.90
22984;DHT22;11658;48.908;9.140;2023-08-06T17:51:22;13.50;99.90
22984;DHT22;11658;48.908;9.140;2023-08-06T17:53:48;13.50;99.90
22984;DHT22;11658;48.908;9.140;2023-08-06T17:56:13;13.50;99.90
22984;DHT22;11658;48.908;9.140;2023-08-06T17:58:41;13.40;99.90
22984;DHT22;11658;48.908;9.140;2023-08-06T18:01:07;13.40;99.90
22984;DHT22;11658;48.908;9.140;2023-08-06T18:03:32;13.40;99.90
22984;DHT22;11658;48.908;9.140;2023-08-06T18:05:59;13.30;99.90
22984;DHT22;11658;48.908;9.140;2023-08-06T18:08:24;13.30;99.90
22984;DHT22;11658;48.908;9.140;2023-08-06T18:10:53;13.30;99.90
22984;DHT22;11658;48.908;9.140;2023-08-06T18:13:21;13.30;99.90
22984;DHT22;11658;48.908;9.140;2023-08-06T18:15:46;13.30;99.90
22984;DHT22;11658;48.908;9.140;2023-08-06T18:18:13;13.40;99.90
22984;DHT22;11658;48.908;9.140;2023-08-06T18:20:39;13.40;99.90
22984;DHT22;11658;48.908;9.140;2023-08-06T18:23:05;13.40;99.90
22984;DHT22;11658;48.908;9.140;2023-08-06T18:25:31;13.40;99.90
22984;DHT22;11658;48.908;9.140;2023-08-06T18:27:56;13.40;99.90
22984;DHT22;11658;48.908;9.140;2023-08-06T18:30:22;13.40;99.90
22984;DHT22;11658;48.908;9.140;2023-08-06T18:32:48;13.50;99.90
22984;DHT22;11658;48.908;9.140;2023-08-06T18:35:14;13.40;99.90
22984;DHT22;11658;48.908;9.140;2023-08-06T18:37:39;13.40;99.90
22984;DHT22;11658;48.908;9.140;2023-08-06T18:40:06;13.40;99.90
22984;DHT22;11658;48.908;9.140;2023-08-06T18:42:32;13.40;99.90
22984;DHT22;11658;48.908;9.140;2023-08-06T18:44:58;13.40;99.90
22984;DHT22;11658;48.908;9.140;2023-08-06T18:47:27;13.30;99.90
22984;DHT22;11658;48.908;9.140;2023-08-06T18:49:53;13.40;99.90
22984;DHT22;11658;48.908;9.140;2023-08-06T18:52:19;13.40;99.90
22984;DHT22;11658;48.908;9.140;2023-08-06T18:54:45;13.40;99.90
22984;DHT22;11658;48.908;9.140;2023-08-06T18:57:10;13.40;99.90
22984;DHT22;11658;48.908;9.140;2023-08-06T18:59:36;13.40;99.90
22984;DHT22;11658;48.908;9.140;2023-08-06T19:02:02;13.40;99.90
22984;DHT22;11658;48.908;9.140;2023-08-06T19:04:27;13.40;99.90
22984;DHT22;11658;48.908;9.140;2023-08-06T19:06:53;13.40;99.90
22984;DHT22;11658;48.908;9.140;2023-08-06T19:09:19;13.40;99.90
22984;DHT22;11658;48.908;9.140;2023-08-06T19:11:44;13.50;99.90
22984;DHT22;11658;48.908;9.140;2023-08-06T19:14:10;13.50;99.90
22984;DHT22;11658;48.908;9.140;2023-08-06T19:16:36;13.60;99.90
22984;DHT22;11658;48.908;9.140;2023-08-06T19:19:02;13.60;99.90
22984;DHT22;11658;48.908;9.140;2023-08-06T19:21:28;13.60;99.90
22984;DHT22;11658;48.908;9.140;2023-08-06T19:23:53;13.60;99.90
22984;DHT22;11658;48.908;9.140;2023-08-06T19:26:19;13.60;99.90
22984;DHT22;11658;48.908;9.140;2023-08-06T19:28:45;13.60;99.90
22984;DHT22;11658;48.908;9.140;2023-08-06T19:31:10;13.60;99.90
22984;DHT22;11658;48.908;9.140;2023-08-06T19:33:36;13.60;99.90
22984;DHT22;11658;48.908;9.140;2023-08-06T19:36:01;13.60;99.90
22984;DHT22;11658;48.908;9.140;2023-08-06T19:38:27;13.60;99.90
22984;DHT22;11658;48.908;9.140;2023-08-06T19:41:04;13.60;99.90
22984;DHT22;11658;48.908;9.140;2023-08-06T19:43:30;13.70;99.90
22984;DHT22;11658;48.908;9.140;2023-08-06T19:45:56;13.70;99.90
22984;DHT22;11658;48.908;9.140;2023-08-06T19:48:24;13.80;99.90
22984;DHT22;11658;48.908;9.140;2023-08-06T19:50:51;13.80;99.90
22984;DHT22;11658;48.908;9.140;2023-08-06T19:53:17;13.80;99.90
22984;DHT22;11658;48.908;9.140;2023-08-06T19:55:43;13.90;99.90
22984;DHT22;11658;48.908;9.140;2023-08-06T19:58:09;13.90;99.90
22984;DHT22;11658;48.908;9.140;2023-08-06T20:00:35;13.80;99.90
22984;DHT22;11658;48.908;9.140;2023-08-06T20:03:01;13.80;99.90
22984;DHT22;11658;48.908;9.140;2023-08-06T20:05:27;13.80;99.90
22984;DHT22;11658;48.908;9.140;2023-08-06T20:07:52;13.70;99.90
22984;DHT22;11658;48.908;9.140;2023-08-06T20:10:18;13.80;99.90
22984;DHT22;11658;48.908;9.140;2023-08-06T20:12:44;13.70;99.90
22984;DHT22;11658;48.908;9.140;2023-08-06T20:15:09;13.60;99.90
22984;DHT22;11658;48.908;9.140;2023-08-06T20:17:35;13.60;99.90
22984;DHT22;11658;48.908;9.140;2023-08-06T20:20:01;13.60;99.90
22984;DHT22;11658;48.908;9.140;2023-08-06T20:22:27;13.60;99.90
22984;DHT22;11658;48.908;9.140;2023-08-06T20:24:52;13.40;99.90
22984;DHT22;11658;48.908;9.140;2023-08-06T20:27:18;13.30;99.90
22984;DHT22;11658;48.908;9.140;2023-08-06T20:29:44;13.20;99.90
22984;DHT22;11658;48.908;9.140;2023-08-06T20:32:10;13.10;99.90